Atoka, Tennessee
Current Conditions -  °F | °C
As of 6:55 AM on Sunday 21 Dec 2014 (Local Time) from KNQA Reporting Station
Scattered Clouds Scattered Clouds  
Wind Chill: 30°   Ceiling: Unl
Heat Index: 30°   Visibility: 10mi
Dew Point: 28°   Wind: 3mph
Humidity: 93%   Direction: 80°E
Pressure: 30.22"   Gusts: NA
Location:  35.44°N, 89.78°W
Report Text: KNQA 211255Z 08003KT 10SM SCT050 M01/M02 A3022
Loading
Personal Weather Stations






























Interactive Weather Map New forecast layout! Learn more

10-Day Weather Forecast

Advertisements
Track Severe Weather on mobile